KPIB/PIB METAR and TAF weather

Enter ICAO airport designator
Station Type Date Time Source
KPIB METAR 2020/04/09 09:20 UTC NOAA

KPIB 090920Z AUTO VRB04KT 5SM BR SCT007 22/21 A2981 RMK AO2


Station Type Date Time Source
KPIB Decoded METAR 2020/04/09 09:20 UTC NOAA

Hattiesburg/Laurel, Hattiesburg-Laurel Regional Airport, MS, United States (KPIB) 31-28N 089-20W
Apr 09, 2020 - 05:20 AM EDT / 2020.04.09 0920 UTC
Wind: Variable at 5 MPH (4 KT):0
Visibility: 5 mile(s):0
Sky conditions: partly cloudy
Weather: mist
Temperature: 71 F (22 C)
Dew Point: 69 F (21 C)
Relative Humidity: 94%
Pressure (altimeter): 29.81 in. Hg (1009 hPa)
ob: KPIB 090920Z AUTO VRB04KT 5SM BR SCT007 22/21 A2981 RMK AO2
cycle: 9

Station Type Date Time Source
KPIB TAF 2020/04/09 06:48 UTC NOAA

TAF KPIB 090545Z 0906/1006 VRB05KT P6SM SKC
FM090900 26006KT P6SM SCT007 BKN015
FM091100 26004KT 4SM BR OVC005
FM091400 31008KT P6SM BKN015
FM091700 34007KT P6SM SCT045

Example: see airport list